sensor_id;sensor_type;location;lat;lon;timestamp;pressure;altitude;pressure_sealevel;temperature;humidity
73518;BME280;61766;60.318;25.044;2024-03-25T00:01:37;99606.80;;;6.29;36.93
73518;BME280;61766;60.318;25.044;2024-03-25T00:04:02;99607.32;;;5.87;36.79
73518;BME280;61766;60.318;25.044;2024-03-25T00:06:28;99608.31;;;5.70;37.12
73518;BME280;61766;60.318;25.044;2024-03-25T00:08:53;99608.60;;;5.85;36.89
73518;BME280;61766;60.318;25.044;2024-03-25T00:11:18;99609.19;;;6.22;36.98
73518;BME280;61766;60.318;25.044;2024-03-25T00:13:43;99609.64;;;5.69;37.12
73518;BME280;61766;60.318;25.044;2024-03-25T00:16:09;99611.54;;;5.81;37.23
73518;BME280;61766;60.318;25.044;2024-03-25T00:18:33;99612.20;;;5.45;37.43
73518;BME280;61766;60.318;25.044;2024-03-25T00:20:59;99614.31;;;5.91;37.18
73518;BME280;61766;60.318;25.044;2024-03-25T00:23:24;99613.60;;;5.73;37.13
73518;BME280;61766;60.318;25.044;2024-03-25T00:25:49;99614.73;;;6.17;37.12
73518;BME280;61766;60.318;25.044;2024-03-25T00:28:14;99616.01;;;5.77;37.02
73518;BME280;61766;60.318;25.044;2024-03-25T00:30:39;99618.50;;;5.64;37.09
73518;BME280;61766;60.318;25.044;2024-03-25T00:33:05;99617.65;;;5.77;37.23
73518;BME280;61766;60.318;25.044;2024-03-25T00:35:30;99615.41;;;5.70;37.18
73518;BME280;61766;60.318;25.044;2024-03-25T00:37:55;99615.42;;;5.39;37.46
73518;BME280;61766;60.318;25.044;2024-03-25T00:40:21;99613.17;;;5.61;37.34
73518;BME280;61766;60.318;25.044;2024-03-25T00:42:46;99613.39;;;5.71;37.38
73518;BME280;61766;60.318;25.044;2024-03-25T00:45:11;99613.91;;;5.76;37.21
73518;BME280;61766;60.318;25.044;2024-03-25T00:47:36;99614.11;;;5.59;37.47
73518;BME280;61766;60.318;25.044;2024-03-25T00:50:01;99614.34;;;5.49;37.44
73518;BME280;61766;60.318;25.044;2024-03-25T00:52:26;99612.25;;;5.85;37.08
73518;BME280;61766;60.318;25.044;2024-03-25T00:54:52;99609.75;;;5.77;37.42
73518;BME280;61766;60.318;25.044;2024-03-25T00:57:17;99612.75;;;5.84;37.26
73518;BME280;61766;60.318;25.044;2024-03-25T00:59:42;99610.74;;;5.85;37.25
73518;BME280;61766;60.318;25.044;2024-03-25T01:02:07;99613.43;;;5.80;37.26
73518;BME280;61766;60.318;25.044;2024-03-25T01:04:32;99615.81;;;6.01;37.09
73518;BME280;61766;60.318;25.044;2024-03-25T01:06:58;99616.87;;;5.49;37.18
73518;BME280;61766;60.318;25.044;2024-03-25T01:09:23;99615.48;;;5.78;37.26
73518;BME280;61766;60.318;25.044;2024-03-25T01:11:48;99615.57;;;5.66;37.36
73518;BME280;61766;60.318;25.044;2024-03-25T01:14:13;99615.68;;;5.55;37.48
73518;BME280;61766;60.318;25.044;2024-03-25T01:16:38;99615.81;;;5.90;37.46
73518;BME280;61766;60.318;25.044;2024-03-25T01:19:03;99617.56;;;5.77;37.59
73518;BME280;61766;60.318;25.044;2024-03-25T01:21:32;99617.03;;;5.82;37.50
73518;BME280;61766;60.318;25.044;2024-03-25T01:23:54;99617.01;;;5.80;37.55
73518;BME280;61766;60.318;25.044;2024-03-25T01:26:19;99616.78;;;5.88;37.40
73518;BME280;61766;60.318;25.044;2024-03-25T01:28:44;99619.46;;;5.68;37.59
73518;BME280;61766;60.318;25.044;2024-03-25T01:31:09;99621.00;;;5.79;37.46
73518;BME280;61766;60.318;25.044;2024-03-25T01:33:35;99621.79;;;5.58;37.40
73518;BME280;61766;60.318;25.044;2024-03-25T01:36:00;99622.74;;;5.68;37.65
73518;BME280;61766;60.318;25.044;2024-03-25T01:38:25;99623.00;;;5.53;37.16
73518;BME280;61766;60.318;25.044;2024-03-25T01:40:50;99626.68;;;4.98;37.67
73518;BME280;61766;60.318;25.044;2024-03-25T01:45:41;99627.09;;;5.59;37.24
73518;BME280;61766;60.318;25.044;2024-03-25T01:48:08;99629.58;;;5.52;37.36
73518;BME280;61766;60.318;25.044;2024-03-25T01:50:33;99628.75;;;5.58;37.05
73518;BME280;61766;60.318;25.044;2024-03-25T01:52:57;99630.27;;;5.26;37.30
73518;BME280;61766;60.318;25.044;2024-03-25T01:55:24;99632.97;;;5.31;37.22
73518;BME280;61766;60.318;25.044;2024-03-25T01:57:48;99634.45;;;5.31;37.12
73518;BME280;61766;60.318;25.044;2024-03-25T02:00:14;99636.39;;;5.46;37.26
73518;BME280;61766;60.318;25.044;2024-03-25T02:02:37;99637.14;;;5.50;37.24
73518;BME280;61766;60.318;25.044;2024-03-25T02:05:03;99634.99;;;5.47;37.21
73518;BME280;61766;60.318;25.044;2024-03-25T02:07:28;99635.60;;;5.47;37.22
73518;BME280;61766;60.318;25.044;2024-03-25T02:09:55;99640.09;;;5.04;37.09
73518;BME280;61766;60.318;25.044;2024-03-25T02:12:18;99637.30;;;5.15;37.03
73518;BME280;61766;60.318;25.044;2024-03-25T02:14:43;99638.66;;;5.58;36.75
73518;BME280;61766;60.318;25.044;2024-03-25T02:17:09;99638.45;;;5.48;36.59
73518;BME280;61766;60.318;25.044;2024-03-25T02:19:34;99641.34;;;5.48;36.38
73518;BME280;61766;60.318;25.044;2024-03-25T02:21:59;99643.73;;;5.59;36.39
73518;BME280;61766;60.318;25.044;2024-03-25T02:24:27;99646.02;;;5.69;36.22
73518;BME280;61766;60.318;25.044;2024-03-25T02:26:50;99647.94;;;5.53;36.14
73518;BME280;61766;60.318;25.044;2024-03-25T02:29:16;99649.01;;;5.84;36.05
73518;BME280;61766;60.318;25.044;2024-03-25T02:31:41;99653.51;;;5.43;36.10
73518;BME280;61766;60.318;25.044;2024-03-25T02:34:06;99652.27;;;5.72;36.04
73518;BME280;61766;60.318;25.044;2024-03-25T02:36:32;99658.25;;;5.67;36.15
73518;BME280;61766;60.318;25.044;2024-03-25T02:38:58;99655.66;;;5.44;36.21
73518;BME280;61766;60.318;25.044;2024-03-25T02:41:22;99656.77;;;5.72;36.19
73518;BME280;61766;60.318;25.044;2024-03-25T02:43:48;99658.49;;;5.83;36.01
73518;BME280;61766;60.318;25.044;2024-03-25T02:46:13;99660.70;;;5.74;36.25
73518;BME280;61766;60.318;25.044;2024-03-25T02:48:37;99660.77;;;5.68;36.36
73518;BME280;61766;60.318;25.044;2024-03-25T02:51:03;99664.33;;;5.58;36.47
73518;BME280;61766;60.318;25.044;2024-03-25T02:53:30;99664.26;;;6.00;36.49
73518;BME280;61766;60.318;25.044;2024-03-25T02:55:55;99666.61;;;5.94;36.65
73518;BME280;61766;60.318;25.044;2024-03-25T02:58:19;99666.40;;;5.64;36.73
73518;BME280;61766;60.318;25.044;2024-03-25T03:00:44;99668.86;;;5.42;36.62
73518;BME280;61766;60.318;25.044;2024-03-25T03:03:09;99669.12;;;4.77;36.92
73518;BME280;61766;60.318;25.044;2024-03-25T03:05:35;99670.58;;;5.41;36.85
73518;BME280;61766;60.318;25.044;2024-03-25T03:08:00;99671.66;;;5.56;36.62
73518;BME280;61766;60.318;25.044;2024-03-25T03:10:25;99673.84;;;5.67;36.45
73518;BME280;61766;60.318;25.044;2024-03-25T03:12:51;99676.03;;;5.76;36.26
73518;BME280;61766;60.318;25.044;2024-03-25T03:15:16;99678.98;;;5.52;36.44
73518;BME280;61766;60.318;25.044;2024-03-25T03:17:41;99678.25;;;5.53;36.65
73518;BME280;61766;60.318;25.044;2024-03-25T03:20:07;99678.16;;;5.64;36.53
73518;BME280;61766;60.318;25.044;2024-03-25T03:22:32;99679.87;;;5.64;36.37
73518;BME280;61766;60.318;25.044;2024-03-25T03:24:57;99682.03;;;5.52;36.74
73518;BME280;61766;60.318;25.044;2024-03-25T03:27:23;99685.81;;;5.67;36.47
73518;BME280;61766;60.318;25.044;2024-03-25T03:29:48;99685.86;;;5.80;36.37
73518;BME280;61766;60.318;25.044;2024-03-25T03:32:14;99688.04;;;5.88;36.15
73518;BME280;61766;60.318;25.044;2024-03-25T03:34:39;99692.88;;;5.95;36.09
73518;BME280;61766;60.318;25.044;2024-03-25T03:37:05;99691.97;;;5.82;36.23
73518;BME280;61766;60.318;25.044;2024-03-25T03:39:30;99694.89;;;5.66;36.25
73518;BME280;61766;60.318;25.044;2024-03-25T03:41:55;99697.00;;;5.66;36.50
73518;BME280;61766;60.318;25.044;2024-03-25T03:44:21;99696.22;;;5.73;36.34
73518;BME280;61766;60.318;25.044;2024-03-25T03:46:46;99701.85;;;5.67;36.33
73518;BME280;61766;60.318;25.044;2024-03-25T03:49:12;99703.40;;;5.73;36.66
73518;BME280;61766;60.318;25.044;2024-03-25T03:51:37;99703.87;;;5.35;36.76
73518;BME280;61766;60.318;25.044;2024-03-25T03:54:02;99701.99;;;5.57;37.14
73518;BME280;61766;60.318;25.044;2024-03-25T03:56:27;99701.87;;;5.49;37.27
73518;BME280;61766;60.318;25.044;2024-03-25T03:58:52;99705.84;;;5.10;37.72
73518;BME280;61766;60.318;25.044;2024-03-25T04:01:18;99702.96;;;5.33;37.54
73518;BME280;61766;60.318;25.044;2024-03-25T04:03:43;99704.42;;;5.36;37.74
73518;BME280;61766;60.318;25.044;2024-03-25T04:06:11;99709.74;;;5.13;37.54
73518;BME280;61766;60.318;25.044;2024-03-25T04:11:01;99711.23;;;5.38;37.74
73518;BME280;61766;60.318;25.044;2024-03-25T04:13:24;99717.20;;;5.00;37.46
73518;BME280;61766;60.318;25.044;2024-03-25T04:15:51;99722.40;;;5.24;37.29
73518;BME280;61766;60.318;25.044;2024-03-25T04:18:15;99724.24;;;5.42;37.11
73518;BME280;61766;60.318;25.044;2024-03-25T04:20:41;99728.18;;;5.57;36.96
73518;BME280;61766;60.318;25.044;2024-03-25T04:23:07;99729.66;;;5.64;36.65
73518;BME280;61766;60.318;25.044;2024-03-25T04:25:31;99731.88;;;5.55;36.73
73518;BME280;61766;60.318;25.044;2024-03-25T04:27:57;99729.34;;;5.43;37.10
73518;BME280;61766;60.318;25.044;2024-03-25T04:30:22;99730.43;;;5.24;37.10
73518;BME280;61766;60.318;25.044;2024-03-25T04:32:48;99736.37;;;5.56;36.83
73518;BME280;61766;60.318;25.044;2024-03-25T04:35:13;99737.53;;;5.48;36.88
73518;BME280;61766;60.318;25.044;2024-03-25T04:37:39;99738.65;;;5.40;36.91
73518;BME280;61766;60.318;25.044;2024-03-25T04:42:29;99740.93;;;5.18;37.31
73518;BME280;61766;60.318;25.044;2024-03-25T04:44:55;99743.39;;;5.31;37.12
73518;BME280;61766;60.318;25.044;2024-03-25T04:47:21;99742.15;;;5.47;37.27
73518;BME280;61766;60.318;25.044;2024-03-25T04:49:46;99748.62;;;5.58;37.62
73518;BME280;61766;60.318;25.044;2024-03-25T04:52:11;99749.36;;;5.26;37.76
73518;BME280;61766;60.318;25.044;2024-03-25T04:54:37;99751.49;;;5.65;37.57
73518;BME280;61766;60.318;25.044;2024-03-25T04:57:03;99756.22;;;5.41;37.56
73518;BME280;61766;60.318;25.044;2024-03-25T04:59:28;99756.39;;;5.53;37.78
73518;BME280;61766;60.318;25.044;2024-03-25T05:01:53;99754.15;;;5.37;37.76
73518;BME280;61766;60.318;25.044;2024-03-25T05:04:19;99757.74;;;4.92;38.03
73518;BME280;61766;60.318;25.044;2024-03-25T05:06:44;99755.32;;;5.29;37.62
73518;BME280;61766;60.318;25.044;2024-03-25T05:09:09;99759.96;;;5.34;37.67
73518;BME280;61766;60.318;25.044;2024-03-25T05:11:35;99762.96;;;5.07;37.76
73518;BME280;61766;60.318;25.044;2024-03-25T05:14:00;99766.29;;;5.09;37.85
73518;BME280;61766;60.318;25.044;2024-03-25T05:16:29;99768.05;;;5.21;37.72
73518;BME280;61766;60.318;25.044;2024-03-25T05:18:51;99767.59;;;5.54;37.39
73518;BME280;61766;60.318;25.044;2024-03-25T05:21:16;99770.06;;;5.78;36.99
73518;BME280;61766;60.318;25.044;2024-03-25T05:23:41;99773.81;;;5.75;36.63
73518;BME280;61766;60.318;25.044;2024-03-25T05:26:08;99777.60;;;5.85;36.52
73518;BME280;61766;60.318;25.044;2024-03-25T05:28:34;99776.84;;;5.83;36.65
73518;BME280;61766;60.318;25.044;2024-03-25T05:33:25;99781.80;;;6.00;36.48
73518;BME280;61766;60.318;25.044;2024-03-25T05:35:48;99780.46;;;5.71;36.68
73518;BME280;61766;60.318;25.044;2024-03-25T05:38:13;99787.62;;;5.67;36.55
73518;BME280;61766;60.318;25.044;2024-03-25T05:40:38;99788.07;;;5.78;36.35
73518;BME280;61766;60.318;25.044;2024-03-25T05:43:03;99787.68;;;5.31;37.15
73518;BME280;61766;60.318;25.044;2024-03-25T05:45:29;99791.85;;;6.07;36.61
73518;BME280;61766;60.318;25.044;2024-03-25T05:47:54;99791.44;;;5.96;36.81
73518;BME280;61766;60.318;25.044;2024-03-25T05:50:22;99792.10;;;5.73;37.08
73518;BME280;61766;60.318;25.044;2024-03-25T05:52:45;99798.03;;;5.23;37.67
73518;BME280;61766;60.318;25.044;2024-03-25T05:55:11;99795.30;;;6.04;36.78
73518;BME280;61766;60.318;25.044;2024-03-25T05:57:36;99801.27;;;5.45;37.86
73518;BME280;61766;60.318;25.044;2024-03-25T06:00:01;99805.08;;;5.21;38.52
73518;BME280;61766;60.318;25.044;2024-03-25T06:02:27;99806.13;;;5.59;37.88
73518;BME280;61766;60.318;25.044;2024-03-25T06:04:53;99807.37;;;5.69;37.69
73518;BME280;61766;60.318;25.044;2024-03-25T06:07:18;99810.99;;;5.37;38.33
73518;BME280;61766;60.318;25.044;2024-03-25T06:09:44;99813.42;;;5.13;38.17
73518;BME280;61766;60.318;25.044;2024-03-25T06:12:09;99818.01;;;4.96;38.50
73518;BME280;61766;60.318;25.044;2024-03-25T06:14:49;99817.99;;;5.12;38.35
73518;BME280;61766;60.318;25.044;2024-03-25T06:16:59;99819.35;;;5.20;37.88
73518;BME280;61766;60.318;25.044;2024-03-25T06:19:24;99824.85;;;5.60;37.67
73518;BME280;61766;60.318;25.044;2024-03-25T06:21:50;99827.53;;;5.78;37.29
73518;BME280;61766;60.318;25.044;2024-03-25T06:24:15;99830.51;;;5.77;37.14
73518;BME280;61766;60.318;25.044;2024-03-25T06:26:40;99832.20;;;5.72;37.00
73518;BME280;61766;60.318;25.044;2024-03-25T06:29:07;99839.02;;;5.99;36.40
73518;BME280;61766;60.318;25.044;2024-03-25T06:31:31;99840.00;;;5.89;36.67
73518;BME280;61766;60.318;25.044;2024-03-25T06:33:56;99843.30;;;6.39;35.94
73518;BME280;61766;60.318;25.044;2024-03-25T06:36:21;99841.84;;;5.97;36.56
73518;BME280;61766;60.318;25.044;2024-03-25T06:38:47;99839.36;;;5.54;36.95
73518;BME280;61766;60.318;25.044;2024-03-25T06:41:12;99847.73;;;5.31;37.60
73518;BME280;61766;60.318;25.044;2024-03-25T06:43:37;99850.51;;;5.72;37.48
73518;BME280;61766;60.318;25.044;2024-03-25T06:46:03;99852.96;;;5.76;37.55
73518;BME280;61766;60.318;25.044;2024-03-25T06:48:28;99855.54;;;5.83;37.28
73518;BME280;61766;60.318;25.044;2024-03-25T06:50:58;99860.54;;;6.05;37.00
73518;BME280;61766;60.318;25.044;2024-03-25T06:53:19;99861.20;;;5.26;37.47
73518;BME280;61766;60.318;25.044;2024-03-25T06:58:10;99871.58;;;5.59;36.86
73518;BME280;61766;60.318;25.044;2024-03-25T07:00:37;99874.91;;;5.74;36.43
73518;BME280;61766;60.318;25.044;2024-03-25T07:03:00;99878.32;;;5.65;36.64
73518;BME280;61766;60.318;25.044;2024-03-25T07:07:51;99884.32;;;6.32;36.21
73518;BME280;61766;60.318;25.044;2024-03-25T07:10:16;99887.89;;;5.99;35.92
73518;BME280;61766;60.318;25.044;2024-03-25T07:12:41;99890.68;;;5.97;35.53
73518;BME280;61766;60.318;25.044;2024-03-25T07:15:06;99895.63;;;6.30;35.19
73518;BME280;61766;60.318;25.044;2024-03-25T07:17:31;99901.77;;;6.43;34.87
73518;BME280;61766;60.318;25.044;2024-03-25T07:19:56;99905.33;;;6.91;34.64
73518;BME280;61766;60.318;25.044;2024-03-25T07:22:22;99905.00;;;6.79;34.25
73518;BME280;61766;60.318;25.044;2024-03-25T07:24:47;99906.90;;;6.19;34.35
73518;BME280;61766;60.318;25.044;2024-03-25T07:27:12;99909.28;;;6.35;34.20
73518;BME280;61766;60.318;25.044;2024-03-25T07:29:37;99912.11;;;6.07;34.69
73518;BME280;61766;60.318;25.044;2024-03-25T07:32:02;99919.00;;;6.84;34.01
73518;BME280;61766;60.318;25.044;2024-03-25T07:34:27;99918.19;;;6.38;34.50
73518;BME280;61766;60.318;25.044;2024-03-25T07:36:52;99922.56;;;6.71;34.22
73518;BME280;61766;60.318;25.044;2024-03-25T07:39:17;99927.48;;;6.56;34.05
73518;BME280;61766;60.318;25.044;2024-03-25T07:41:43;99929.92;;;6.60;34.00
73518;BME280;61766;60.318;25.044;2024-03-25T07:44:08;99931.47;;;7.11;33.98
73518;BME280;61766;60.318;25.044;2024-03-25T07:46:33;99930.14;;;7.10;33.69
73518;BME280;61766;60.318;25.044;2024-03-25T07:48:58;99928.23;;;6.48;34.25
73518;BME280;61766;60.318;25.044;2024-03-25T07:51:23;99933.03;;;6.54;34.75
73518;BME280;61766;60.318;25.044;2024-03-25T07:56:14;99941.84;;;6.70;34.46
73518;BME280;61766;60.318;25.044;2024-03-25T07:58:39;99944.24;;;6.18;35.31
73518;BME280;61766;60.318;25.044;2024-03-25T08:01:04;99946.97;;;5.98;35.13
73518;BME280;61766;60.318;25.044;2024-03-25T08:03:29;99948.25;;;6.28;35.28
73518;BME280;61766;60.318;25.044;2024-03-25T08:05:54;99947.37;;;6.13;35.50
73518;BME280;61766;60.318;25.044;2024-03-25T08:08:19;99950.97;;;6.37;35.14
73518;BME280;61766;60.318;25.044;2024-03-25T08:10:45;99951.30;;;6.22;35.06
73518;BME280;61766;60.318;25.044;2024-03-25T08:13:09;99953.72;;;6.44;35.13
73518;BME280;61766;60.318;25.044;2024-03-25T08:15:35;99953.00;;;6.46;34.71
73518;BME280;61766;60.318;25.044;2024-03-25T08:18:00;99957.00;;;6.46;34.77
73518;BME280;61766;60.318;25.044;2024-03-25T08:20:25;99956.77;;;6.32;35.01
73518;BME280;61766;60.318;25.044;2024-03-25T08:22:51;99957.76;;;6.71;34.40
73518;BME280;61766;60.318;25.044;2024-03-25T08:27:40;99964.38;;;6.47;34.94
73518;BME280;61766;60.318;25.044;2024-03-25T08:30:06;99963.91;;;5.98;34.99
73518;BME280;61766;60.318;25.044;2024-03-25T08:32:31;99964.87;;;6.08;35.00
73518;BME280;61766;60.318;25.044;2024-03-25T08:34:56;99962.99;;;6.38;35.11
73518;BME280;61766;60.318;25.044;2024-03-25T08:37:21;99964.04;;;6.34;34.93
73518;BME280;61766;60.318;25.044;2024-03-25T08:39:46;99966.12;;;6.59;34.40
73518;BME280;61766;60.318;25.044;2024-03-25T08:42:11;99965.89;;;7.04;33.34
73518;BME280;61766;60.318;25.044;2024-03-25T08:44:36;99966.19;;;6.68;33.70
73518;BME280;61766;60.318;25.044;2024-03-25T08:47:01;99968.84;;;6.92;34.04
73518;BME280;61766;60.318;25.044;2024-03-25T08:49:26;99967.97;;;6.71;34.23
73518;BME280;61766;60.318;25.044;2024-03-25T08:51:52;99967.94;;;6.71;33.88
73518;BME280;61766;60.318;25.044;2024-03-25T08:54:17;99971.57;;;6.93;34.04
73518;BME280;61766;60.318;25.044;2024-03-25T08:59:08;99978.01;;;6.58;33.98
73518;BME280;61766;60.318;25.044;2024-03-25T09:01:32;99980.32;;;6.59;34.58
73518;BME280;61766;60.318;25.044;2024-03-25T09:03:57;99977.93;;;6.74;33.95
73518;BME280;61766;60.318;25.044;2024-03-25T09:06:22;99987.36;;;6.97;32.37
73518;BME280;61766;60.318;25.044;2024-03-25T09:08:48;99985.28;;;7.22;32.85
73518;BME280;61766;60.318;25.044;2024-03-25T09:11:13;99987.05;;;6.77;33.50
73518;BME280;61766;60.318;25.044;2024-03-25T09:13:38;99989.52;;;6.75;33.54
73518;BME280;61766;60.318;25.044;2024-03-25T09:16:03;99992.50;;;6.90;33.42
73518;BME280;61766;60.318;25.044;2024-03-25T09:18:28;99998.42;;;7.23;32.98
73518;BME280;61766;60.318;25.044;2024-03-25T09:20:53;99998.32;;;7.32;32.41
73518;BME280;61766;60.318;25.044;2024-03-25T09:23:18;100000.96;;;7.69;32.45
73518;BME280;61766;60.318;25.044;2024-03-25T09:25:50;100003.71;;;7.64;32.55
73518;BME280;61766;60.318;25.044;2024-03-25T09:28:11;100006.55;;;7.60;32.93
73518;BME280;61766;60.318;25.044;2024-03-25T09:30:37;100010.62;;;7.32;32.63
73518;BME280;61766;60.318;25.044;2024-03-25T09:32:59;100010.69;;;7.75;32.29
73518;BME280;61766;60.318;25.044;2024-03-25T09:35:24;100013.49;;;7.58;32.60
73518;BME280;61766;60.318;25.044;2024-03-25T09:37:49;100017.80;;;7.46;32.80
73518;BME280;61766;60.318;25.044;2024-03-25T09:40:15;100017.77;;;7.41;31.67
73518;BME280;61766;60.318;25.044;2024-03-25T09:42:46;100018.09;;;7.19;32.19
73518;BME280;61766;60.318;25.044;2024-03-25T09:45:06;100019.61;;;7.64;32.79
73518;BME280;61766;60.318;25.044;2024-03-25T09:47:30;100016.63;;;7.17;33.73
73518;BME280;61766;60.318;25.044;2024-03-25T09:49:57;100017.07;;;7.35;33.37
73518;BME280;61766;60.318;25.044;2024-03-25T09:52:20;100021.22;;;7.27;32.85
73518;BME280;61766;60.318;25.044;2024-03-25T09:54:45;100018.38;;;7.10;33.52
73518;BME280;61766;60.318;25.044;2024-03-25T09:57:11;100021.95;;;7.22;33.42
73518;BME280;61766;60.318;25.044;2024-03-25T09:59:35;100023.62;;;7.12;32.73
73518;BME280;61766;60.318;25.044;2024-03-25T10:02:04;100029.43;;;7.59;32.56
73518;BME280;61766;60.318;25.044;2024-03-25T10:04:27;100032.71;;;6.95;33.53
73518;BME280;61766;60.318;25.044;2024-03-25T10:06:52;100034.20;;;7.01;33.30
73518;BME280;61766;60.318;25.044;2024-03-25T10:09:18;100040.28;;;6.73;32.81
73518;BME280;61766;60.318;25.044;2024-03-25T10:11:41;100039.66;;;6.97;33.25
73518;BME280;61766;60.318;25.044;2024-03-25T10:14:08;100040.15;;;6.91;32.63
73518;BME280;61766;60.318;25.044;2024-03-25T10:16:32;100041.80;;;7.19;32.14
73518;BME280;61766;60.318;25.044;2024-03-25T10:18:57;100039.24;;;7.45;31.60
73518;BME280;61766;60.318;25.044;2024-03-25T10:21:23;100041.52;;;7.27;30.96
73518;BME280;61766;60.318;25.044;2024-03-25T10:23:47;100041.07;;;7.82;31.25
73518;BME280;61766;60.318;25.044;2024-03-25T10:26:25;100040.60;;;7.73;31.26
73518;BME280;61766;60.318;25.044;2024-03-25T10:28:37;100044.32;;;7.65;30.95
73518;BME280;61766;60.318;25.044;2024-03-25T10:31:06;100048.05;;;7.57;30.05
73518;BME280;61766;60.318;25.044;2024-03-25T10:33:27;100047.43;;;8.00;28.60
73518;BME280;61766;60.318;25.044;2024-03-25T10:35:55;100051.83;;;7.67;29.27
73518;BME280;61766;60.318;25.044;2024-03-25T10:38:20;100052.68;;;7.64;29.62
73518;BME280;61766;60.318;25.044;2024-03-25T10:40:43;100056.61;;;7.80;29.45
73518;BME280;61766;60.318;25.044;2024-03-25T10:43:09;100057.10;;;7.84;28.51
73518;BME280;61766;60.318;25.044;2024-03-25T10:45:34;100057.77;;;7.92;28.91
73518;BME280;61766;60.318;25.044;2024-03-25T10:50:28;100057.13;;;7.91;27.12
73518;BME280;61766;60.318;25.044;2024-03-25T10:52:48;100059.23;;;7.72;27.61
73518;BME280;61766;60.318;25.044;2024-03-25T10:55:14;100060.70;;;7.34;28.25
73518;BME280;61766;60.318;25.044;2024-03-25T10:57:39;100068.75;;;6.87;28.14
73518;BME280;61766;60.318;25.044;2024-03-25T11:00:05;100071.47;;;6.52;28.51
73518;BME280;61766;60.318;25.044;2024-03-25T11:02:29;100068.50;;;5.79;29.14
73518;BME280;61766;60.318;25.044;2024-03-25T11:04:54;100068.65;;;5.89;28.89
73518;BME280;61766;60.318;25.044;2024-03-25T11:07:24;100073.31;;;6.04;28.97
73518;BME280;61766;60.318;25.044;2024-03-25T11:09:45;100072.87;;;6.08;28.83
73518;BME280;61766;60.318;25.044;2024-03-25T11:12:12;100075.52;;;6.57;28.38
73518;BME280;61766;60.318;25.044;2024-03-25T11:14:35;100075.52;;;6.08;28.73
73518;BME280;61766;60.318;25.044;2024-03-25T11:17:13;100073.05;;;5.83;29.40
73518;BME280;61766;60.318;25.044;2024-03-25T11:19:29;100075.74;;;6.06;29.22
73518;BME280;61766;60.318;25.044;2024-03-25T11:21:50;100074.79;;;5.76;29.26
73518;BME280;61766;60.318;25.044;2024-03-25T11:26:44;100079.78;;;5.94;29.55
73518;BME280;61766;60.318;25.044;2024-03-25T11:29:06;100081.76;;;5.76;30.46
73518;BME280;61766;60.318;25.044;2024-03-25T11:31:31;100083.77;;;6.15;29.11
73518;BME280;61766;60.318;25.044;2024-03-25T11:33:56;100086.45;;;5.58;30.56
73518;BME280;61766;60.318;25.044;2024-03-25T11:36:21;100086.27;;;5.86;29.75
73518;BME280;61766;60.318;25.044;2024-03-25T11:38:46;100085.90;;;6.25;29.74
73518;BME280;61766;60.318;25.044;2024-03-25T11:41:13;100087.07;;;5.53;30.87
73518;BME280;61766;60.318;25.044;2024-03-25T11:43:36;100087.54;;;5.61;31.43
73518;BME280;61766;60.318;25.044;2024-03-25T11:46:02;100092.01;;;6.09;32.08
73518;BME280;61766;60.318;25.044;2024-03-25T11:48:28;100092.46;;;6.22;31.90
73518;BME280;61766;60.318;25.044;2024-03-25T11:53:17;100096.87;;;6.38;31.15
73518;BME280;61766;60.318;25.044;2024-03-25T11:55:46;100094.91;;;6.80;30.60
73518;BME280;61766;60.318;25.044;2024-03-25T11:58:07;100097.32;;;6.65;31.19
73518;BME280;61766;60.318;25.044;2024-03-25T12:00:32;100097.13;;;6.92;30.42
73518;BME280;61766;60.318;25.044;2024-03-25T12:02:58;100096.29;;;6.51;30.20
73518;BME280;61766;60.318;25.044;2024-03-25T12:05:23;100096.51;;;7.29;30.20
73518;BME280;61766;60.318;25.044;2024-03-25T12:07:48;100097.32;;;7.72;29.97
73518;BME280;61766;60.318;25.044;2024-03-25T12:10:13;100098.63;;;7.47;29.43
73518;BME280;61766;60.318;25.044;2024-03-25T12:12:38;100101.55;;;7.73;28.57
73518;BME280;61766;60.318;25.044;2024-03-25T12:15:04;100103.92;;;7.37;29.81
73518;BME280;61766;60.318;25.044;2024-03-25T12:17:28;100107.01;;;7.70;29.59
73518;BME280;61766;60.318;25.044;2024-03-25T12:20:02;100108.99;;;7.57;29.27
73518;BME280;61766;60.318;25.044;2024-03-25T12:22:22;100110.07;;;7.39;29.13
73518;BME280;61766;60.318;25.044;2024-03-25T12:24:57;100112.11;;;7.90;28.52
73518;BME280;61766;60.318;25.044;2024-03-25T12:27:10;100109.92;;;7.98;28.28
73518;BME280;61766;60.318;25.044;2024-03-25T12:29:35;100114.09;;;8.43;27.83
73518;BME280;61766;60.318;25.044;2024-03-25T12:32:00;100117.46;;;7.92;28.91
73518;BME280;61766;60.318;25.044;2024-03-25T12:34:25;100117.99;;;7.57;29.20
73518;BME280;61766;60.318;25.044;2024-03-25T12:36:51;100123.27;;;7.99;28.83
73518;BME280;61766;60.318;25.044;2024-03-25T12:39:19;100122.77;;;7.73;28.93
73518;BME280;61766;60.318;25.044;2024-03-25T12:41:40;100128.29;;;8.02;29.56
73518;BME280;61766;60.318;25.044;2024-03-25T12:44:05;100131.20;;;8.37;29.08
73518;BME280;61766;60.318;25.044;2024-03-25T12:46:30;100131.63;;;8.14;29.43
73518;BME280;61766;60.318;25.044;2024-03-25T12:48:56;100132.04;;;8.21;29.16
73518;BME280;61766;60.318;25.044;2024-03-25T12:51:21;100130.54;;;7.80;29.54
73518;BME280;61766;60.318;25.044;2024-03-25T12:53:46;100131.55;;;8.16;29.83
73518;BME280;61766;60.318;25.044;2024-03-25T12:56:11;100135.94;;;7.90;29.28
73518;BME280;61766;60.318;25.044;2024-03-25T12:58:37;100138.05;;;7.21;28.99
73518;BME280;61766;60.318;25.044;2024-03-25T13:03:28;100139.82;;;7.56;28.89
73518;BME280;61766;60.318;25.044;2024-03-25T13:05:52;100142.82;;;7.51;29.47
73518;BME280;61766;60.318;25.044;2024-03-25T13:08:18;100143.59;;;7.16;28.95
73518;BME280;61766;60.318;25.044;2024-03-25T13:10:43;100144.97;;;6.57;30.16
73518;BME280;61766;60.318;25.044;2024-03-25T13:13:07;100147.48;;;6.57;30.71
73518;BME280;61766;60.318;25.044;2024-03-25T13:15:32;100149.95;;;7.07;30.52
73518;BME280;61766;60.318;25.044;2024-03-25T13:17:57;100149.69;;;7.36;29.82